Time;durP1;ratioP1;P1;durP2;ratioP2;P2;SDS_P1;SDS_P2;PMS_P1;PMS_P2;Temp;Humidity;BMP_temperature;BMP_pressure;BME280_temperature;BME280_humidity;BME280_pressure;Samples;Min_cycle;Max_cycle;Signal;HPM_P1;HPM_P2
2023/12/01 10:42:39;;;;;;;20.30;12.27;;;;;;;1.63;100.00;97546.22;5131043;27;21019;-89
2023/12/01 10:45:08;;;;;;;15.00;10.10;;;;;;;2.62;100.00;97574.41;5111074;27;40548;-87
2023/12/01 10:47:44;;;;;;;17.10;11.33;;;;;;;3.09;100.00;97554.47;5110929;27;40826;-90
2023/12/01 10:50:13;;;;;;;15.13;10.43;;;;;;;3.73;100.00;97592.84;5111461;27;42094;-88
2023/12/01 10:52:57;;;;;;;13.70;9.97;;;;;;;3.97;100.00;97570.53;5110971;27;41566;-88
2023/12/01 10:55:26;;;;;;;15.13;9.47;;;;;;;4.27;100.00;97549.59;5111356;27;40633;-87
2023/12/01 10:58:03;;;;;;;14.80;10.43;;;;;;;4.75;98.14;97583.50;5111248;27;42833;-88
2023/12/01 11:00:30;;;;;;;11.60;8.17;;;;;;;4.87;95.83;97574.91;5111623;27;41787;-89
2023/12/01 11:03:00;;;;;;;12.97;8.50;;;;;;;4.77;96.25;97500.34;5111083;27;43477;-89
2023/12/01 11:05:31;;;;;;;13.07;9.37;;;;;;;5.08;92.44;97544.72;5111119;27;40003;-87
2023/12/01 11:11:52;;;;;;;10.67;7.63;;;;;;;5.27;88.77;97540.06;5125357;27;41823;-86
2023/12/01 11:14:22;;;;;;;13.73;9.07;;;;;;;5.29;85.77;97550.47;5124349;27;41993;-87
2023/12/01 11:16:50;;;;;;;12.67;9.33;;;;;;;5.56;84.77;97598.63;5111585;27;39306;-88
2023/12/01 11:22:00;;;;;;;12.77;8.93;;;;;;;5.57;83.35;97599.44;5110130;27;41991;-89
2023/12/01 11:24:31;;;;;;;12.20;8.40;;;;;;;5.57;82.43;97586.31;5111010;27;41071;-88
2023/12/01 11:27:23;;;;;;;11.77;8.33;;;;;;;5.76;82.48;97574.56;5110615;27;39292;-89
2023/12/01 11:30:28;;;;;;;14.73;8.97;;;;;;;6.17;82.52;97594.75;5110941;27;40631;-88
2023/12/01 11:33:20;;;;;;;12.43;8.60;;;;;;;6.38;81.88;97587.25;5110759;27;42026;-89
2023/12/01 11:36:25;;;;;;;11.93;8.57;;;;;;;6.30;81.83;97536.97;5110789;27;42062;-87
2023/12/01 11:39:16;;;;;;;11.63;8.37;;;;;;;6.40;78.49;97580.09;5108078;27;39137;-86
2023/12/01 11:41:51;;;;;;;11.27;7.40;;;;;;;6.50;79.97;97602.22;5093559;27;40583;-89
2023/12/01 11:44:43;;;;;;;11.70;7.90;;;;;;;6.30;78.37;97589.53;5110587;27;43096;-85
2023/12/01 11:53:58;;;;;;;11.37;8.10;;;;;;;5.84;78.61;97616.09;5134841;27;41667;-87
2023/12/01 12:02:07;;;;;;;10.43;7.83;;;;;;;5.08;81.02;97531.63;5132424;27;42948;-87
2023/12/01 12:25:11;;;;;;;10.47;7.83;;;;;;;5.30;81.77;97592.38;5114608;28;42162;-92
2023/12/01 12:27:40;;;;;;;12.13;8.07;;;;;;;5.11;82.19;97549.78;5095539;28;43907;-89
2023/12/01 12:30:40;;;;;;;14.30;9.50;;;;;;;5.19;81.34;97555.44;5096602;28;42434;-88
2023/12/01 12:35:49;;;;;;;12.77;8.33;;;;;;;5.35;81.38;97590.28;5095385;27;40612;-90
2023/12/01 12:38:25;;;;;;;11.03;8.13;;;;;;;5.41;81.23;97605.66;5069154;28;42703;-88
2023/12/01 12:40:54;;;;;;;10.83;8.00;;;;;;;5.05;81.07;97556.28;5096757;27;43809;-90
2023/12/01 12:43:25;;;;;;;11.77;8.17;;;;;;;5.13;81.85;97563.66;5109160;27;40113;-90
2023/12/01 12:45:54;;;;;;;11.83;7.90;;;;;;;5.32;81.83;97606.22;5115835;27;41092;-90
2023/12/01 12:48:25;;;;;;;11.80;7.47;;;;;;;5.13;81.66;97568.06;5079167;28;42959;-90
2023/12/01 12:51:13;;;;;;;11.77;8.57;;;;;;;5.36;80.95;97623.47;5113608;28;42021;-89
2023/12/01 12:53:41;;;;;;;10.93;8.40;;;;;;;5.14;82.04;97575.84;5079129;28;39113;-89
2023/12/01 12:56:35;;;;;;;9.47;7.40;;;;;;;5.07;80.77;97584.22;5095299;28;42007;-91
2023/12/01 13:01:41;;;;;;;11.60;8.20;;;;;;;5.07;81.75;97595.50;5102788;28;42705;-86
2023/12/01 13:04:09;;;;;;;11.67;8.40;;;;;;;5.09;81.17;97609.41;5077918;28;40028;-88
2023/12/01 13:06:57;;;;;;;14.27;8.53;;;;;;;5.12;81.71;97624.97;5078857;28;40830;-89
2023/12/01 13:09:44;;;;;;;9.83;6.90;;;;;;;4.94;81.30;97610.34;5078739;28;42076;-90
2023/12/01 13:12:14;;;;;;;12.67;8.57;;;;;;;4.97;81.58;97615.38;5075671;28;41355;-87
2023/12/01 13:14:41;;;;;;;13.60;9.20;;;;;;;4.93;81.44;97619.13;5079117;28;40681;-87
2023/12/01 13:17:13;;;;;;;10.93;8.00;;;;;;;4.86;80.87;97623.03;5081400;28;41504;-92
2023/12/01 13:19:49;;;;;;;13.13;8.10;;;;;;;4.63;81.89;97590.31;5078501;28;42299;-89
2023/12/01 13:22:17;;;;;;;13.23;8.97;;;;;;;4.71;81.59;97603.81;5078543;28;41447;-85
2023/12/01 13:24:45;;;;;;;12.60;8.00;;;;;;;4.79;81.74;97612.09;5078808;28;39001;-86
2023/12/01 13:27:15;;;;;;;12.50;8.23;;;;;;;4.69;81.52;97603.91;5078683;28;41638;-86
2023/12/01 13:29:43;;;;;;;11.80;7.73;;;;;;;4.67;82.10;97591.84;5079191;28;41839;-85
2023/12/01 13:32:10;;;;;;;13.83;8.37;;;;;;;4.38;81.33;97554.22;5095987;28;42574;-88
2023/12/01 13:34:40;;;;;;;13.00;8.00;;;;;;;4.63;81.54;97592.94;5062205;28;39101;-90
2023/12/01 13:37:08;;;;;;;13.93;7.83;;;;;;;4.40;82.05;97549.72;5082662;28;40970;-85
2023/12/01 13:39:36;;;;;;;11.40;7.30;;;;;;;4.32;82.06;97521.34;5087728;28;42520;-83
2023/12/01 13:42:04;;;;;;;13.70;8.10;;;;;;;4.68;82.60;97575.16;5095214;28;42405;-86
2023/12/01 13:44:33;;;;;;;16.00;10.13;;;;;;;4.61;82.78;97561.56;5086156;28;39461;-88
2023/12/01 13:47:01;;;;;;;14.73;9.43;;;;;;;4.74;82.57;97576.56;5079533;28;40831;-88
2023/12/01 13:49:29;;;;;;;16.37;10.67;;;;;;;4.52;82.13;97556.88;5078082;28;42080;-86
2023/12/01 13:51:56;;;;;;;15.67;10.13;;;;;;;4.58;82.38;97566.97;5078644;28;41425;-89
2023/12/01 13:54:24;;;;;;;14.63;8.90;;;;;;;4.27;82.25;97525.16;5095164;28;41721;-90
2023/12/01 13:56:51;;;;;;;12.93;8.23;;;;;;;4.42;82.66;97560.97;5078103;28;41324;-86
2023/12/01 13:59:19;;;;;;;12.10;7.83;;;;;;;4.52;82.46;97588.31;5078051;28;42963;-87
2023/12/01 14:01:48;;;;;;;11.07;7.67;;;;;;;4.57;82.63;97609.88;5078180;28;42224;-87
2023/12/01 14:04:16;;;;;;;10.63;7.07;;;;;;;4.45;82.47;97597.47;5077842;28;40211;-86
